Time;durP1;ratioP1;P1;durP2;ratioP2;P2;SDS_P1;SDS_P2;PMS_P1;PMS_P2;Temp;Humidity;BMP_temperature;BMP_pressure;BME280_temperature;BME280_humidity;BME280_pressure;Samples;Min_cycle;Max_cycle;Signal;HPM_P1;HPM_P2
2022/09/19 00:00:14;;;;;;;2.80;1.52;;;;;;;8.73;89.69;95617.20;1683347;84;21399;-84
2022/09/19 00:02:41;;;;;;;3.47;1.92;;;;;;;8.74;89.65;95623.19;1675202;84;21095;-85
2022/09/19 00:05:08;;;;;;;3.37;2.67;;;;;;;8.78;89.73;95617.13;1672632;84;21159;-84
2022/09/19 00:07:36;;;;;;;4.22;3.20;;;;;;;8.81;90.17;95618.87;1674379;84;20993;-84
2022/09/19 00:10:01;;;;;;;3.33;2.58;;;;;;;8.83;90.29;95623.36;1643607;85;20969;-85
2022/09/19 00:12:28;;;;;;;4.35;2.85;;;;;;;8.81;90.40;95620.16;1689201;84;20987;-85
2022/09/19 00:14:56;;;;;;;4.00;2.17;;;;;;;8.81;90.76;95622.75;1678634;84;21056;-85
2022/09/19 00:17:22;;;;;;;5.20;3.77;;;;;;;8.83;90.73;95617.38;1700445;84;21429;-85
2022/09/19 00:19:47;;;;;;;3.00;1.62;;;;;;;8.82;90.63;95620.97;1699979;84;21075;-84
2022/09/19 00:22:13;;;;;;;4.60;3.08;;;;;;;8.81;90.82;95622.75;1682573;84;21289;-85
2022/09/19 00:24:49;;;;;;;2.37;1.57;;;;;;;8.80;90.69;95623.75;1672746;84;20933;-84
2022/09/19 00:27:21;;;;;;;3.50;2.22;;;;;;;8.75;90.65;95618.80;1692040;84;21071;-85
2022/09/19 00:29:49;;;;;;;1.75;1.15;;;;;;;8.68;90.89;95616.98;1690216;84;21032;-84
2022/09/19 00:32:15;;;;;;;2.30;1.40;;;;;;;8.65;91.20;95619.16;1672704;84;21335;-85
2022/09/19 00:34:44;;;;;;;3.15;1.45;;;;;;;8.65;91.35;95615.27;1686370;84;21310;-85
2022/09/19 00:37:10;;;;;;;1.70;1.12;;;;;;;8.66;91.43;95603.42;1681994;84;20987;-84
2022/09/19 00:39:36;;;;;;;1.67;0.82;;;;;;;8.67;91.66;95614.09;1700373;84;21043;-85
2022/09/19 00:42:02;;;;;;;0.53;0.40;;;;;;;8.66;91.94;95626.73;1700660;84;20964;-85
2022/09/19 00:44:33;;;;;;;0.82;0.42;;;;;;;8.64;91.87;95633.09;1681286;84;20983;-84
2022/09/19 00:47:05;;;;;;;0.85;0.70;;;;;;;8.61;91.63;95642.50;1687705;84;20957;-85
2022/09/19 00:49:37;;;;;;;1.85;1.45;;;;;;;8.58;91.79;95634.62;1672998;84;20988;-85
2022/09/19 00:52:07;;;;;;;1.77;1.07;;;;;;;8.58;92.16;95639.00;1673105;84;21028;-85
2022/09/19 00:54:40;;;;;;;1.72;1.00;;;;;;;8.58;92.26;95639.00;1732240;82;20941;-85
2022/09/19 00:57:06;;;;;;;;;;;;;;;8.59;92.50;95643.19;1731324;82;20989;-85
2022/09/19 00:59:36;;;;;;;0.45;0.40;;;;;;;8.63;92.49;95641.36;1736941;81;20103;-85
2022/09/19 01:02:03;;;;;;;7.47;4.22;;;;;;;8.65;92.55;95643.75;1729482;82;21382;-85
2022/09/19 01:04:34;;;;;;;1.42;1.10;;;;;;;8.69;92.66;95648.86;1738319;82;20925;-85
2022/09/19 01:07:28;;;;;;;1.60;0.90;;;;;;;8.69;92.36;95648.36;1711108;82;21028;-85
2022/09/19 01:10:36;;;;;;;1.60;0.70;;;;;;;8.63;92.52;95650.42;1711412;82;21024;-85
2022/09/19 01:13:18;;;;;;;1.52;1.25;;;;;;;8.58;92.37;95656.63;1714203;82;20929;-85
2022/09/19 01:16:08;;;;;;;3.87;1.55;;;;;;;8.57;92.91;95652.94;1711696;82;20980;-86
2022/09/19 01:18:51;;;;;;;1.67;1.17;;;;;;;8.56;92.93;95665.08;1718468;82;21012;-86
2022/09/19 01:21:40;;;;;;;2.10;1.37;;;;;;;8.55;92.79;95650.53;1720965;82;21005;-86
2022/09/19 01:24:44;;;;;;;1.52;1.30;;;;;;;8.59;92.77;95650.46;1711619;82;20972;-86
2022/09/19 01:27:33;;;;;;;1.65;1.20;;;;;;;8.58;92.55;95659.22;1711681;82;21004;-86
2022/09/19 01:30:05;;;;;;;2.60;1.50;;;;;;;8.56;92.36;95655.22;1717727;82;21033;-86
2022/09/19 01:32:42;;;;;;;3.27;2.25;;;;;;;8.47;92.20;95653.27;1708275;84;20981;-86
2022/09/19 01:35:09;;;;;;;1.77;1.45;;;;;;;8.43;92.35;95661.88;1732279;82;21280;-85
2022/09/19 01:37:48;;;;;;;3.02;1.90;;;;;;;8.39;92.27;95652.89;1711663;82;21387;-86
2022/09/19 01:40:14;;;;;;;2.05;1.57;;;;;;;8.37;92.53;95660.53;1734774;82;20925;-85
2022/09/19 01:42:57;;;;;;;1.67;1.45;;;;;;;8.41;92.91;95659.97;1712458;82;20952;-84
2022/09/19 01:45:31;;;;;;;1.77;1.15;;;;;;;8.40;93.20;95654.48;1738280;82;20937;-86
2022/09/19 01:48:18;;;;;;;3.20;1.47;;;;;;;8.45;92.79;95660.89;1719844;82;20975;-86
2022/09/19 01:51:17;;;;;;;3.30;2.33;;;;;;;8.39;92.70;95661.95;1722521;82;21095;-85
2022/09/19 01:54:07;;;;;;;3.40;1.98;;;;;;;8.33;92.76;95663.16;1720498;81;21382;-86
2022/09/19 01:56:53;;;;;;;2.45;1.50;;;;;;;8.31;93.19;95662.05;1741351;82;20945;-86
2022/09/19 01:59:46;;;;;;;3.27;1.50;;;;;;;8.31;93.24;95666.44;1740610;82;20914;-86
2022/09/19 02:02:41;;;;;;;1.60;1.30;;;;;;;8.32;93.35;95673.21;1720506;82;20972;-86
2022/09/19 02:05:27;;;;;;;2.40;1.37;;;;;;;8.35;93.46;95666.39;1725591;82;21082;-86
2022/09/19 02:08:09;;;;;;;2.98;1.87;;;;;;;8.33;93.36;95675.61;1734496;82;21004;-86
2022/09/19 02:10:48;;;;;;;7.25;5.83;;;;;;;8.35;93.20;95672.86;1735335;81;21015;-87
2022/09/19 02:13:15;;;;;;;8.15;6.47;;;;;;;8.33;93.22;95683.88;1754404;82;20944;-86
2022/09/19 02:15:48;;;;;;;5.12;3.22;;;;;;;8.31;93.28;95678.87;1752135;82;20912;-86
2022/09/19 02:18:22;;;;;;;4.62;2.10;;;;;;;8.28;93.15;95683.59;1755298;81;21267;-86
2022/09/19 02:20:47;;;;;;;1.98;1.45;;;;;;;8.26;92.95;95683.78;1754839;82;21003;-85
2022/09/19 02:23:18;;;;;;;4.37;2.70;;;;;;;8.26;92.92;95684.28;1746350;82;21302;-86
2022/09/19 02:25:44;;;;;;;3.87;3.30;;;;;;;8.26;93.22;95682.49;1725123;82;20956;-86
2022/09/19 02:28:18;;;;;;;2.65;1.55;;;;;;;8.32;93.44;95685.66;1752474;82;20983;-86
2022/09/19 02:30:44;;;;;;;3.70;2.70;;;;;;;8.38;93.19;95683.64;1740238;82;21020;-85
2022/09/19 02:33:11;;;;;;;2.30;1.60;;;;;;;8.41;93.47;95682.47;1746893;82;21363;-85
2022/09/19 02:35:50;;;;;;;1.77;1.50;;;;;;;8.43;93.00;95685.17;1725249;82;20964;-86
2022/09/19 02:38:29;;;;;;;2.10;1.62;;;;;;;8.38;92.87;95684.94;1746541;82;21018;-86
2022/09/19 02:41:17;;;;;;;2.20;1.47;;;;;;;8.34;92.65;95685.01;1713239;82;21343;-86
2022/09/19 02:44:19;;;;;;;2.27;1.30;;;;;;;8.32;92.70;95683.56;1731747;82;21385;-85
2022/09/19 02:47:11;;;;;;;1.60;1.50;;;;;;;8.34;92.88;95691.97;1754275;82;21027;-85
2022/09/19 02:49:57;;;;;;;1.60;1.50;;;;;;;8.35;92.75;95689.20;1715169;83;21038;-86
2022/09/19 02:52:32;;;;;;;4.08;1.40;;;;;;;8.33;92.62;95687.26;1697293;83;21006;-85
2022/09/19 02:55:05;;;;;;;2.77;1.67;;;;;;;8.26;92.50;95692.05;1734317;82;21326;-84
2022/09/19 02:57:32;;;;;;;2.10;1.30;;;;;;;8.22;92.43;95690.32;1727636;82;21410;-85
2022/09/19 02:59:59;;;;;;;2.60;2.40;;;;;;;8.22;93.03;95687.73;1740539;82;20968;-85
2022/09/19 03:02:28;;;;;;;2.33;1.57;;;;;;;8.26;93.01;95684.28;1749900;82;21012;-85
2022/09/19 03:04:59;;;;;;;2.67;1.40;;;;;;;8.28;93.11;95682.30;1724984;82;21326;-86
2022/09/19 03:07:36;;;;;;;2.02;1.27;;;;;;;8.25;92.72;95688.66;1715109;82;21004;-85
2022/09/19 03:10:12;;;;;;;1.98;1.42;;;;;;;8.23;92.38;95690.62;1723357;82;20960;-85
2022/09/19 03:12:51;;;;;;;2.00;1.50;;;;;;;8.23;92.66;95689.34;1740250;82;21017;-85
2022/09/19 03:15:51;;;;;;;2.80;2.12;;;;;;;8.23;92.88;95689.34;1727153;81;21085;-85
2022/09/19 03:18:17;;;;;;;2.77;1.95;;;;;;;8.25;92.99;95691.73;1723592;82;20992;-85
2022/09/19 03:20:53;;;;;;;4.25;3.65;;;;;;;8.19;92.45;95697.16;1740482;82;21001;-84
2022/09/19 03:23:23;;;;;;;7.78;5.10;;;;;;;8.19;92.95;95692.48;1657225;85;20964;-86
2022/09/19 03:25:50;;;;;;;4.42;3.15;;;;;;;8.21;93.00;95692.60;1677011;85;20988;-85
2022/09/19 03:28:19;;;;;;;5.47;3.52;;;;;;;8.24;93.30;95700.00;1720761;82;21346;-85
2022/09/19 03:30:43;;;;;;;3.60;2.90;;;;;;;8.28;93.35;95700.42;1740349;82;20989;-85
2022/09/19 03:33:11;;;;;;;5.65;3.40;;;;;;;8.30;93.11;95703.66;1735072;81;21261;-85
2022/09/19 03:35:38;;;;;;;2.60;2.40;;;;;;;8.32;93.12;95698.59;1711304;82;21363;-85
2022/09/19 03:38:03;;;;;;;2.33;2.10;;;;;;;8.33;93.12;95700.20;1711987;82;21057;-86
2022/09/19 03:40:30;;;;;;;3.10;2.20;;;;;;;8.28;92.77;95704.30;1730567;82;21347;-85
2022/09/19 03:42:56;;;;;;;5.08;3.70;;;;;;;8.22;92.68;95700.67;1743036;82;20945;-85
2022/09/19 03:45:21;;;;;;;4.10;3.15;;;;;;;8.21;92.64;95708.13;1740150;81;21275;-85
2022/09/19 03:47:47;;;;;;;3.27;2.70;;;;;;;8.17;92.45;95699.14;1722448;82;20972;-85
2022/09/19 03:50:13;;;;;;;3.05;2.00;;;;;;;8.17;93.10;95701.73;1712723;82;21340;-85
2022/09/19 03:52:38;;;;;;;2.15;1.52;;;;;;;8.21;93.09;95695.19;1720460;82;21024;-85
2022/09/19 03:55:05;;;;;;;1.52;1.20;;;;;;;8.20;93.03;95698.77;1711570;82;20901;-85
2022/09/19 03:57:31;;;;;;;1.47;1.20;;;;;;;8.25;93.22;95700.30;1726344;82;20945;-86
2022/09/19 03:59:57;;;;;;;4.33;3.42;;;;;;;8.27;93.19;95701.41;1737862;81;21653;-85
2022/09/19 04:02:23;;;;;;;5.12;3.12;;;;;;;8.28;93.02;95698.63;1726410;82;21020;-85
2022/09/19 04:04:48;;;;;;;2.65;1.98;;;;;;;8.31;92.96;95692.31;1711369;82;20999;-85
2022/09/19 04:07:15;;;;;;;3.33;2.15;;;;;;;8.31;92.82;95702.67;1721979;82;21055;-85
2022/09/19 04:09:41;;;;;;;2.08;1.10;;;;;;;8.31;92.37;95696.20;1745714;82;21303;-85
2022/09/19 04:12:07;;;;;;;1.15;0.90;;;;;;;8.27;91.73;95696.23;1728648;81;20960;-86
2022/09/19 04:14:34;;;;;;;1.70;1.10;;;;;;;8.22;91.51;95699.88;1724922;82;21362;-85
2022/09/19 04:17:00;;;;;;;2.70;2.50;;;;;;;8.16;91.61;95699.33;1730006;82;20964;-86
2022/09/19 04:19:26;;;;;;;3.10;1.95;;;;;;;8.01;91.78;95685.13;1740415;82;20988;-85
2022/09/19 04:21:59;;;;;;;2.52;1.40;;;;;;;8.09;91.94;95705.21;1725158;82;21007;-85
2022/09/19 04:24:26;;;;;;;3.05;1.40;;;;;;;8.02;91.78;95707.42;1754410;82;21310;-85
2022/09/19 04:26:50;;;;;;;2.77;1.85;;;;;;;8.03;92.38;95705.95;1754225;82;20961;-85
2022/09/19 04:29:19;;;;;;;3.12;1.62;;;;;;;8.01;92.06;95716.17;1754608;82;20975;-86
2022/09/19 04:31:43;;;;;;;1.95;1.22;;;;;;;8.00;92.11;95714.08;1735271;82;21003;-85
2022/09/19 04:34:14;;;;;;;2.25;1.35;;;;;;;7.98;91.99;95716.55;1725506;82;21339;-86
2022/09/19 04:36:37;;;;;;;4.28;3.10;;;;;;;7.96;92.28;95721.87;1738342;82;21119;-85
2022/09/19 04:39:03;;;;;;;2.22;1.98;;;;;;;8.00;92.69;95719.75;1732107;82;21039;-85
2022/09/19 04:41:33;;;;;;;2.52;1.57;;;;;;;8.04;92.79;95728.25;1736054;82;20940;-85
2022/09/19 04:43:59;;;;;;;2.52;1.60;;;;;;;8.03;92.70;95732.31;1726071;82;21032;-85
2022/09/19 04:46:25;;;;;;;2.15;1.52;;;;;;;8.03;92.61;95734.91;1734125;82;20905;-85
2022/09/19 04:48:52;;;;;;;2.27;1.10;;;;;;;8.07;92.86;95734.84;1736511;82;21023;-86
2022/09/19 04:51:19;;;;;;;1.92;1.20;;;;;;;8.08;92.34;95741.13;1751946;82;21382;-85
2022/09/19 04:53:44;;;;;;;1.92;1.57;;;;;;;8.09;92.37;95740.63;1742201;81;20960;-85
2022/09/19 04:56:11;;;;;;;1.90;1.42;;;;;;;8.12;92.44;95736.38;1745905;82;20901;-85
2022/09/19 04:58:40;;;;;;;2.08;1.40;;;;;;;8.13;92.77;95739.28;1745786;82;20928;-86
2022/09/19 05:01:07;;;;;;;1.62;1.20;;;;;;;8.18;93.21;95740.84;1748020;82;21994;-85
2022/09/19 05:03:33;;;;;;;2.20;1.10;;;;;;;8.22;92.72;95744.67;1754808;82;20944;-85
2022/09/19 05:05:59;;;;;;;2.75;1.40;;;;;;;8.26;93.00;95739.92;1729286;81;21411;-85
2022/09/19 05:08:29;;;;;;;2.83;1.20;;;;;;;8.29;92.80;95743.44;1722431;82;20961;-85
2022/09/19 05:10:56;;;;;;;3.33;1.65;;;;;;;8.33;92.77;95745.50;1711179;82;20976;-85
2022/09/19 05:13:24;;;;;;;2.50;1.50;;;;;;;8.39;92.99;95751.26;1713276;82;21002;-85
2022/09/19 05:15:51;;;;;;;2.70;1.80;;;;;;;8.40;93.01;95751.56;1740795;82;20953;-85
2022/09/19 05:18:21;;;;;;;2.45;1.87;;;;;;;8.41;92.86;95748.48;1740733;82;21347;-85
2022/09/19 05:20:46;;;;;;;4.03;1.90;;;;;;;8.36;92.26;95747.75;1732597;82;21083;-86
2022/09/19 05:23:13;;;;;;;3.30;2.05;;;;;;;8.33;92.12;95755.85;1711536;82;21020;-86
2022/09/19 05:25:39;;;;;;;5.22;4.35;;;;;;;8.35;92.54;95759.58;1735825;82;21004;-85
2022/09/19 05:28:06;;;;;;;4.62;4.00;;;;;;;8.32;92.43;95759.42;1711503;82;20976;-86
2022/09/19 05:30:34;;;;;;;4.15;2.95;;;;;;;8.29;92.62;95761.06;1711481;82;20938;-85
2022/09/19 05:33:00;;;;;;;4.12;3.30;;;;;;;8.28;92.96;95763.34;1739427;82;21008;-85
2022/09/19 05:35:26;;;;;;;4.80;3.20;;;;;;;8.33;93.32;95764.91;1740362;82;21040;-85
2022/09/19 05:37:52;;;;;;;4.50;3.00;;;;;;;8.37;93.33;95768.77;1712028;82;21048;-85
2022/09/19 05:40:18;;;;;;;3.80;2.75;;;;;;;8.39;93.39;95766.79;1711519;82;20948;-85
2022/09/19 05:42:46;;;;;;;3.10;2.40;;;;;;;8.40;93.21;95773.57;1717159;82;20941;-85
2022/09/19 05:45:12;;;;;;;3.87;3.22;;;;;;;8.39;93.18;95773.27;1725547;82;21001;-84
2022/09/19 05:47:41;;;;;;;4.87;3.58;;;;;;;8.41;93.39;95777.77;1711581;82;20949;-85
2022/09/19 05:50:08;;;;;;;3.37;2.95;;;;;;;8.46;93.20;95780.29;1712837;82;21319;-86
2022/09/19 05:55:24;;;;;;;3.47;2.85;;;;;;;8.45;93.33;95786.45;1730197;81;21008;-85
2022/09/19 05:57:51;;;;;;;10.85;7.92;;;;;;;8.45;93.10;95790.34;1711485;82;21039;-85
2022/09/19 06:00:19;;;;;;;5.87;3.65;;;;;;;8.48;93.04;95788.70;1738332;82;20984;-85
2022/09/19 06:02:56;;;;;;;4.25;2.33;;;;;;;8.52;92.67;95793.81;1740683;82;20996;-85
2022/09/19 06:05:23;;;;;;;4.12;2.58;;;;;;;8.55;93.21;95794.73;1721720;82;21019;-85
2022/09/19 06:07:51;;;;;;;3.72;2.83;;;;;;;8.60;93.12;95797.08;1732636;81;21036;-86
2022/09/19 06:10:18;;;;;;;3.00;2.20;;;;;;;8.63;92.76;95802.41;1755665;81;21385;-85
2022/09/19 06:12:44;;;;;;;3.33;2.70;;;;;;;8.64;92.84;95800.93;1732422;81;20963;-85
2022/09/19 06:15:11;;;;;;;3.52;2.50;;;;;;;8.60;92.13;95802.26;1757506;81;21054;-85
2022/09/19 06:17:36;;;;;;;2.20;1.62;;;;;;;8.56;92.81;95807.99;1762521;81;20989;-85
2022/09/19 06:20:02;;;;;;;15.98;11.60;;;;;;;8.57;92.04;95808.30;1760156;81;20940;-85
2022/09/19 06:22:29;;;;;;;3.58;2.95;;;;;;;8.60;92.39;95807.44;1747717;81;20992;-85
2022/09/19 06:24:55;;;;;;;5.95;3.10;;;;;;;8.70;92.87;95812.33;1751199;81;20944;-85
2022/09/19 06:27:21;;;;;;;3.90;2.27;;;;;;;8.72;92.53;95812.95;1760420;81;20889;-85
2022/09/19 06:29:46;;;;;;;7.50;4.15;;;;;;;8.70;92.32;95814.43;1739938;81;20996;-85
2022/09/19 06:32:12;;;;;;;13.93;6.97;;;;;;;8.70;92.41;95817.52;1732484;81;21027;-85
2022/09/19 06:34:38;;;;;;;17.02;12.53;;;;;;;8.67;92.15;95819.18;1732837;81;21059;-85
2022/09/19 06:37:03;;;;;;;12.13;6.70;;;;;;;8.66;91.89;95815.79;1732532;81;20971;-85
2022/09/19 06:39:29;;;;;;;15.28;8.05;;;;;;;8.64;91.59;95818.26;1732354;81;21318;-85
2022/09/19 06:41:56;;;;;;;15.08;6.70;;;;;;;8.60;91.44;95822.17;1732229;81;20953;-85
2022/09/19 06:44:23;;;;;;;17.20;6.87;;;;;;;8.60;92.06;95829.94;1753906;81;20937;-85
2022/09/19 06:46:49;;;;;;;19.25;7.62;;;;;;;8.61;92.38;95828.95;1747087;81;20991;-85
2022/09/19 06:49:14;;;;;;;43.73;25.17;;;;;;;8.58;92.25;95833.21;1741249;81;21019;-85
2022/09/19 06:51:40;;;;;;;25.25;19.75;;;;;;;8.58;92.14;95832.72;1741213;81;21003;-85
2022/09/19 06:54:06;;;;;;;13.43;7.83;;;;;;;8.57;92.29;95834.20;1762695;81;21048;-85
2022/09/19 06:56:32;;;;;;;9.15;5.92;;;;;;;8.57;92.62;95835.49;1762503;81;21389;-85
2022/09/19 06:58:57;;;;;;;7.60;4.45;;;;;;;8.60;92.84;95841.59;1762504;81;21032;-85
2022/09/19 07:01:23;;;;;;;8.35;7.47;;;;;;;8.60;92.69;95839.81;1749502;81;20993;-85
2022/09/19 07:03:49;;;;;;;7.83;5.20;;;;;;;8.65;92.84;95843.17;1754032;81;20943;-85
2022/09/19 07:06:15;;;;;;;11.03;5.67;;;;;;;8.67;92.72;95844.59;1751844;81;20944;-86
2022/09/19 07:08:41;;;;;;;7.33;4.42;;;;;;;8.73;92.66;95843.84;1724674;82;20980;-86
2022/09/19 07:11:07;;;;;;;6.17;5.58;;;;;;;8.81;92.93;95849.42;1744848;82;20952;-86
2022/09/19 07:13:32;;;;;;;6.97;6.28;;;;;;;8.85;93.06;95850.66;1724879;82;20920;-85
2022/09/19 07:16:02;;;;;;;6.28;5.67;;;;;;;8.91;92.95;95849.91;1747325;82;21035;-85
2022/09/19 07:18:27;;;;;;;5.95;5.10;;;;;;;8.96;93.03;95850.17;1754315;82;20951;-85
2022/09/19 07:20:53;;;;;;;7.42;6.47;;;;;;;9.08;93.07;95858.73;1751508;81;20949;-85
2022/09/19 07:23:19;;;;;;;5.33;4.85;;;;;;;9.18;93.19;95858.75;1749439;82;20928;-85
2022/09/19 07:25:48;;;;;;;8.13;6.40;;;;;;;9.25;92.71;95854.91;1746780;82;21004;-85
2022/09/19 07:28:16;;;;;;;4.70;4.20;;;;;;;9.31;92.40;95865.85;1730079;82;20925;-85
2022/09/19 07:30:43;;;;;;;4.22;3.83;;;;;;;9.29;91.25;95870.42;1739933;81;20948;-85
2022/09/19 07:33:11;;;;;;;25.40;11.60;;;;;;;9.24;90.79;95870.16;1746029;82;20964;-85
2022/09/19 07:35:37;;;;;;;9.78;7.80;;;;;;;9.25;91.27;95871.76;1724920;82;20940;-85
2022/09/19 07:38:04;;;;;;;4.45;3.80;;;;;;;9.26;91.82;95870.77;1745776;82;21076;-85
2022/09/19 07:40:33;;;;;;;6.70;5.00;;;;;;;9.23;90.63;95874.54;1732301;82;21039;-85
2022/09/19 07:43:03;;;;;;;5.83;5.30;;;;;;;9.19;91.20;95874.61;1724926;82;20932;-85
2022/09/19 07:45:32;;;;;;;5.70;5.10;;;;;;;9.23;91.28;95878.42;1744066;82;21067;-85
2022/09/19 07:47:58;;;;;;;5.37;3.33;;;;;;;9.24;91.28;95884.41;1728182;82;20975;-85
2022/09/19 07:50:24;;;;;;;6.37;5.30;;;;;;;9.19;91.20;95886.27;1738827;82;21245;-85
2022/09/19 07:53:00;;;;;;;22.58;10.30;;;;;;;9.21;91.63;95888.68;1734984;82;21323;-85
2022/09/19 07:55:26;;;;;;;27.93;12.82;;;;;;;9.21;90.66;95882.20;1749784;82;21054;-86
2022/09/19 07:57:55;;;;;;;5.92;3.65;;;;;;;9.19;90.11;95884.98;1741653;82;20971;-86
2022/09/19 08:00:25;;;;;;;7.97;4.22;;;;;;;9.14;90.15;95889.12;1747404;82;21359;-86
2022/09/19 08:02:59;;;;;;;7.92;4.25;;;;;;;9.14;90.87;95886.03;1743290;82;21344;-86
2022/09/19 08:05:27;;;;;;;7.40;3.75;;;;;;;9.18;90.84;95883.88;1726178;82;20987;-86
2022/09/19 08:07:55;;;;;;;6.55;3.12;;;;;;;9.24;90.38;95892.19;1753897;81;21339;-86
2022/09/19 08:10:21;;;;;;;8.43;4.85;;;;;;;9.29;89.88;95889.87;1754891;82;20972;-86
2022/09/19 08:12:48;;;;;;;5.25;4.20;;;;;;;9.29;89.94;95890.67;1721233;82;21442;-86
2022/09/19 08:15:15;;;;;;;4.55;3.08;;;;;;;9.36;90.37;95893.80;1724835;82;21355;-85
2022/09/19 08:17:58;;;;;;;4.08;2.85;;;;;;;9.45;90.70;95888.81;1724843;82;20972;-86
2022/09/19 08:20:30;;;;;;;9.83;7.55;;;;;;;9.47;89.66;95891.52;1740911;82;20956;-86
2022/09/19 08:23:04;;;;;;;11.75;6.35;;;;;;;9.54;90.68;95888.48;1748207;82;20940;-86
2022/09/19 08:25:33;;;;;;;26.17;11.53;;;;;;;9.68;91.66;95881.61;1740484;82;20932;-86
2022/09/19 08:27:58;;;;;;;4.80;2.90;;;;;;;9.80;90.58;95885.30;1737385;82;21004;-86
2022/09/19 08:30:27;;;;;;;4.45;3.40;;;;;;;9.88;89.74;95881.75;1752388;82;21477;-86
2022/09/19 08:32:52;;;;;;;8.65;5.90;;;;;;;9.91;89.70;95883.95;1754645;82;20988;-86
2022/09/19 08:35:19;;;;;;;6.35;3.47;;;;;;;10.01;89.95;95886.23;1749224;82;20999;-86
2022/09/19 08:37:46;;;;;;;4.30;3.42;;;;;;;10.03;88.58;95879.86;1726898;81;21047;-86
2022/09/19 08:40:28;;;;;;;2.95;2.10;;;;;;;10.12;88.87;95880.02;1747426;82;21366;-86
2022/09/19 08:43:36;;;;;;;6.90;3.70;;;;;;;10.23;88.89;95870.91;1706914;82;20979;-86
2022/09/19 08:46:15;;;;;;;4.58;2.75;;;;;;;10.28;87.76;95869.06;1731410;82;20956;-86
2022/09/19 08:49:01;;;;;;;3.22;2.67;;;;;;;10.45;89.40;95875.53;1719699;82;21334;-85
2022/09/19 08:51:37;;;;;;;3.22;1.95;;;;;;;10.52;87.24;95862.86;1740319;82;21378;-85
2022/09/19 08:54:21;;;;;;;2.02;1.82;;;;;;;10.53;86.59;95867.56;1745737;82;21366;-85
2022/09/19 08:56:46;;;;;;;2.37;1.80;;;;;;;10.53;86.52;95871.46;1724843;82;21614;-85
2022/09/19 08:59:15;;;;;;;3.37;1.70;;;;;;;10.53;85.71;95872.76;1748512;82;21026;-85
2022/09/19 09:01:40;;;;;;;2.67;1.20;;;;;;;10.59;85.56;95873.30;1724998;82;20987;-84
2022/09/19 09:04:30;;;;;;;2.35;0.98;;;;;;;10.63;84.77;95873.21;1727940;82;20943;-85
2022/09/19 09:07:20;;;;;;;2.17;1.27;;;;;;;10.68;85.56;95870.83;1722550;82;20969;-85
2022/09/19 09:10:23;;;;;;;2.80;1.98;;;;;;;10.67;85.29;95873.62;1713514;82;21020;-85
2022/09/19 09:13:14;;;;;;;1.32;1.22;;;;;;;10.50;82.88;95895.23;1711203;82;21371;-84
2022/09/19 09:16:09;;;;;;;1.50;1.40;;;;;;;10.13;82.76;95893.80;1718351;82;21033;-85
2022/09/19 09:19:06;;;;;;;4.70;3.42;;;;;;;9.83;83.45;95904.38;1736656;82;21018;-85
2022/09/19 09:21:44;;;;;;;4.53;2.47;;;;;;;9.60;84.75;95909.00;1714661;82;20957;-85
2022/09/19 09:24:20;;;;;;;2.10;1.90;;;;;;;9.50;85.50;95914.48;1678559;82;20960;-84
2022/09/19 09:26:46;;;;;;;2.55;2.10;;;;;;;9.39;85.95;95915.47;1711449;82;20960;-85
2022/09/19 09:29:36;;;;;;;3.10;1.60;;;;;;;9.30;86.63;95909.13;1734897;82;20973;-85
2022/09/19 09:32:22;;;;;;;2.40;2.05;;;;;;;9.25;87.95;95931.38;1724349;81;21008;-85
2022/09/19 09:35:01;;;;;;;2.87;2.00;;;;;;;9.20;88.12;95931.14;1719682;82;21489;-85
2022/09/19 09:37:57;;;;;;;2.20;1.70;;;;;;;9.08;88.12;95933.89;1720821;82;21417;-85
2022/09/19 09:43:20;;;;;;;2.80;2.00;;;;;;;8.91;88.78;95940.59;1711667;82;21359;-85
2022/09/19 09:45:48;;;;;;;1.32;1.22;;;;;;;8.91;89.44;95943.18;1707437;82;21557;-85
2022/09/19 09:48:25;;;;;;;3.15;1.57;;;;;;;8.96;90.14;95947.84;1730246;81;21295;-85
2022/09/19 09:51:25;;;;;;;2.95;1.57;;;;;;;8.93;89.62;95942.50;1733629;82;21017;-85
2022/09/19 09:57:28;;;;;;;1.92;1.72;;;;;;;9.06;89.94;95946.23;1711632;82;21008;-85
2022/09/19 10:03:34;;;;;;;2.67;2.05;;;;;;;9.12;89.88;95942.94;1740618;82;20134;-85
2022/09/19 10:06:13;;;;;;;2.58;2.37;;;;;;;9.23;91.03;95943.23;1726621;82;20961;-86
2022/09/19 10:08:59;;;;;;;2.72;2.27;;;;;;;9.28;90.82;95944.80;1734081;81;21043;-85
2022/09/19 10:11:42;;;;;;;2.77;2.05;;;;;;;9.31;91.14;95956.59;1727855;82;20945;-85
2022/09/19 10:14:23;;;;;;;3.55;3.08;;;;;;;9.32;90.61;95954.31;1712076;82;20925;-85
2022/09/19 10:16:52;;;;;;;3.00;2.65;;;;;;;9.30;90.52;95953.20;1711582;82;20960;-85
2022/09/19 10:19:42;;;;;;;3.47;2.80;;;;;;;9.28;90.25;95955.67;1711528;82;21008;-85
2022/09/19 10:22:14;;;;;;;3.55;2.37;;;;;;;9.28;90.61;95952.58;1711742;82;20937;-85
2022/09/19 10:24:45;;;;;;;3.05;2.17;;;;;;;9.35;90.29;95957.83;1722672;82;22025;-85
2022/09/19 10:27:15;;;;;;;3.25;2.77;;;;;;;9.38;90.82;95955.35;1722525;82;20987;-85
2022/09/19 10:29:57;;;;;;;3.30;3.00;;;;;;;9.41;90.60;95962.27;1739134;82;20917;-85
2022/09/19 10:32:34;;;;;;;3.65;2.70;;;;;;;9.39;90.35;95968.63;1723970;82;20953;-85
2022/09/19 10:35:26;;;;;;;3.12;2.85;;;;;;;9.29;90.05;95962.46;1736266;82;21057;-85
2022/09/19 10:38:01;;;;;;;4.67;3.33;;;;;;;9.32;90.86;95965.48;1743589;82;21015;-85
2022/09/19 10:40:30;;;;;;;3.35;2.40;;;;;;;9.20;89.44;95982.98;1713890;82;20972;-85
2022/09/19 10:42:56;;;;;;;3.80;3.25;;;;;;;8.98;89.14;95988.12;1732531;82;20994;-85
2022/09/19 10:45:26;;;;;;;3.25;2.30;;;;;;;8.90;89.62;95993.39;1718208;82;21256;-85
2022/09/19 10:51:11;;;;;;;2.55;1.30;;;;;;;8.77;89.07;96019.12;1664004;85;21568;-86
2022/09/19 10:53:38;;;;;;;1.55;1.30;;;;;;;8.67;88.68;96023.30;1648641;85;21384;-86
2022/09/19 10:56:12;;;;;;;2.02;1.82;;;;;;;8.59;88.47;96025.16;1675748;86;20972;-86
2022/09/19 10:58:40;;;;;;;1.85;1.20;;;;;;;8.51;88.41;96022.66;1698606;83;20980;-86
2022/09/19 11:01:24;;;;;;;2.45;1.20;;;;;;;8.43;89.08;96020.45;1676095;84;21096;-86
2022/09/19 11:04:21;;;;;;;4.03;1.77;;;;;;;8.37;89.48;96010.81;1649546;83;21060;-86
2022/09/19 11:07:00;;;;;;;4.55;1.45;;;;;;;8.38;90.02;96013.72;1668312;84;20982;-86
2022/09/19 11:09:35;;;;;;;4.08;1.60;;;;;;;8.41;90.12;96008.17;1680677;83;20926;-86
2022/09/19 11:12:17;;;;;;;3.50;1.20;;;;;;;8.42;90.18;96021.44;1676689;84;20980;-86
2022/09/19 11:14:46;;;;;;;4.00;2.08;;;;;;;8.47;90.36;96016.23;1661204;83;21006;-86
2022/09/19 11:17:55;;;;;;;2.92;2.22;;;;;;;8.49;90.73;96018.16;1676346;83;20940;-86
2022/09/19 11:20:32;;;;;;;2.77;2.25;;;;;;;8.51;90.60;96015.70;1676705;84;20999;-86
2022/09/19 11:23:10;;;;;;;5.72;4.67;;;;;;;8.54;90.72;96008.06;1676104;83;21056;-86
2022/09/19 11:25:58;;;;;;;12.33;8.68;;;;;;;8.58;90.74;96013.19;1660717;85;20964;-86
2022/09/19 11:29:06;;;;;;;5.65;3.25;;;;;;;8.65;90.95;96011.52;1656475;83;21003;-86
2022/09/19 11:31:47;;;;;;;2.87;2.47;;;;;;;8.75;91.36;96008.64;1676729;83;20990;-86
2022/09/19 11:34:52;;;;;;;2.67;2.12;;;;;;;8.88;92.29;96014.80;1691391;83;21034;-86
2022/09/19 11:37:55;;;;;;;1.47;1.22;;;;;;;9.00;91.46;96013.37;1668506;83;21081;-86
2022/09/19 11:40:56;;;;;;;2.60;2.25;;;;;;;9.11;91.81;96010.81;1672738;83;20995;-86
2022/09/19 11:43:42;;;;;;;2.05;1.70;;;;;;;9.32;92.63;96012.15;1662375;84;20986;-85
2022/09/19 11:46:24;;;;;;;2.67;1.60;;;;;;;9.48;91.54;96008.53;1671425;84;20988;-84
2022/09/19 11:49:19;;;;;;;6.53;4.42;;;;;;;9.73;90.72;96009.46;1649818;84;21137;-85
2022/09/19 11:52:06;;;;;;;5.10;3.72;;;;;;;9.81;90.97;96008.05;1659755;86;20978;-85
2022/09/19 11:55:09;;;;;;;9.38;5.35;;;;;;;9.89;91.54;96005.32;1676762;83;21062;-85
2022/09/19 11:57:57;;;;;;;5.47;3.25;;;;;;;10.00;91.17;95996.23;1676272;84;20964;-85
2022/09/19 12:00:25;;;;;;;3.52;3.22;;;;;;;10.09;89.25;95986.84;1662068;83;21038;-85
2022/09/19 12:03:31;;;;;;;3.22;2.60;;;;;;;10.17;89.74;95984.09;1676403;84;21017;-85
2022/09/19 12:06:34;;;;;;;9.48;5.10;;;;;;;10.36;90.00;95980.06;1657986;84;21037;-85
2022/09/19 12:09:25;;;;;;;3.50;2.83;;;;;;;10.59;89.33;95998.00;1657858;83;21369;-85
2022/09/19 12:11:53;;;;;;;8.25;5.40;;;;;;;10.58;90.50;96000.30;1676858;83;21343;-85
2022/09/19 12:14:39;;;;;;;5.08;3.60;;;;;;;10.57;91.10;96003.06;1665602;84;20958;-85
2022/09/19 12:17:19;;;;;;;4.12;2.80;;;;;;;10.44;89.93;96010.30;1686874;84;20991;-84
2022/09/19 12:20:08;;;;;;;4.33;2.50;;;;;;;10.31;90.39;96014.09;1688650;83;21029;-85
2022/09/19 12:22:34;;;;;;;5.45;3.00;;;;;;;10.17;89.99;96032.63;1665729;83;21397;-85
2022/09/19 12:25:17;;;;;;;11.80;6.58;;;;;;;9.95;89.73;96027.15;1690956;84;20987;-83
2022/09/19 12:27:55;;;;;;;5.03;2.30;;;;;;;9.80;90.31;96026.71;1652763;83;21385;-85